createdAt,value
2022-07-31T00:00:41.339Z,5.70
2022-07-31T00:03:12.937Z,4.90
2022-07-31T00:05:44.695Z,5.80
2022-07-31T00:08:17.131Z,5.77
2022-07-31T00:10:48.432Z,5.80
2022-07-31T00:13:19.802Z,5.73
2022-07-31T00:16:11.141Z,5.77
2022-07-31T00:18:42.519Z,5.43
2022-07-31T00:21:14.054Z,5.63
2022-07-31T00:23:45.644Z,6.27
2022-07-31T00:26:16.986Z,5.90
2022-07-31T00:28:48.319Z,5.33
2022-07-31T00:31:19.712Z,5.40
2022-07-31T00:33:51.201Z,6.03
2022-07-31T00:36:29.914Z,5.57
2022-07-31T00:39:01.760Z,6.23
2022-07-31T00:41:41.085Z,5.63
2022-07-31T00:44:14.167Z,4.90
2022-07-31T00:46:45.520Z,6.20
2022-07-31T00:49:17.271Z,5.80
2022-07-31T00:51:48.675Z,5.50
2022-07-31T00:54:22.509Z,6.63
2022-07-31T00:56:54.226Z,6.50
2022-07-31T00:59:27.134Z,6.40
2022-07-31T01:01:59.298Z,5.70
2022-07-31T01:04:31.364Z,7.00
2022-07-31T01:07:04.168Z,5.97
2022-07-31T01:09:35.725Z,6.37
2022-07-31T01:12:16.173Z,6.43
2022-07-31T01:14:53.099Z,6.60
2022-07-31T01:17:27.627Z,6.50
2022-07-31T01:19:59.695Z,6.37
2022-07-31T01:22:56.627Z,5.97
2022-07-31T01:29:04.107Z,5.93
2022-07-31T01:31:43.946Z,5.40
2022-07-31T01:34:31.834Z,6.50
2022-07-31T01:37:25.065Z,5.47
2022-07-31T01:40:08.452Z,5.07
2022-07-31T01:42:44.068Z,5.47
2022-07-31T01:45:17.974Z,5.75
2022-07-31T01:47:50.369Z,6.40
2022-07-31T01:50:42.646Z,5.53
2022-07-31T01:53:20.431Z,5.70
2022-07-31T01:55:56.561Z,5.33
2022-07-31T01:58:38.590Z,5.73
2022-07-31T02:01:14.025Z,5.30
2022-07-31T02:03:46.692Z,6.13
2022-07-31T02:06:23.359Z,5.57
2022-07-31T02:08:56.584Z,5.70
2022-07-31T02:11:28.768Z,5.83
2022-07-31T02:14:02.585Z,5.17
2022-07-31T02:16:34.306Z,6.47
2022-07-31T02:19:08.400Z,6.30
2022-07-31T02:21:40.309Z,6.67
2022-07-31T02:24:11.718Z,6.03
2022-07-31T02:26:43.293Z,6.30
2022-07-31T02:29:20.156Z,5.50
2022-07-31T02:32:03.196Z,5.43
2022-07-31T02:34:36.296Z,5.83
2022-07-31T02:37:08.375Z,6.20
2022-07-31T02:39:41.196Z,5.77
2022-07-31T02:42:12.926Z,5.77
2022-07-31T02:44:45.387Z,5.30
2022-07-31T02:47:17.032Z,5.80
2022-07-31T02:49:49.609Z,6.03
2022-07-31T02:52:21.279Z,6.13
2022-07-31T02:54:53.405Z,7.20
2022-07-31T02:57:24.846Z,6.57
2022-07-31T02:59:56.481Z,6.00
2022-07-31T03:02:36.922Z,5.97
2022-07-31T03:05:09.596Z,5.97
2022-07-31T03:07:41.007Z,5.27
2022-07-31T03:10:12.998Z,5.90
2022-07-31T03:12:47.446Z,5.43
2022-07-31T03:15:21.917Z,5.83
2022-07-31T03:17:54.301Z,6.37
2022-07-31T03:20:26.961Z,6.13
2022-07-31T03:23:00.283Z,5.60
2022-07-31T03:25:34.525Z,6.50
2022-07-31T03:28:05.856Z,6.10
2022-07-31T03:30:37.401Z,7.70
2022-07-31T03:33:08.741Z,6.50
2022-07-31T03:35:44.481Z,6.73
2022-07-31T03:38:38.634Z,6.07
2022-07-31T03:41:07.454Z,6.80
2022-07-31T03:43:47.497Z,6.47
2022-07-31T03:46:21.901Z,6.73
2022-07-31T03:48:53.496Z,6.57
2022-07-31T03:51:25.514Z,6.47
2022-07-31T03:53:56.963Z,6.57
2022-07-31T03:56:28.765Z,7.60
2022-07-31T03:59:00.274Z,7.00
2022-07-31T04:01:57.948Z,6.97
2022-07-31T04:04:26.076Z,6.27
2022-07-31T04:06:57.481Z,6.83
2022-07-31T04:09:29.265Z,7.43
2022-07-31T04:12:00.705Z,6.80
2022-07-31T04:14:32.241Z,7.37
2022-07-31T04:17:03.754Z,7.40
2022-07-31T04:19:35.232Z,7.80
2022-07-31T04:22:07.546Z,6.83
2022-07-31T04:24:39.160Z,7.53
2022-07-31T04:27:12.836Z,7.03
2022-07-31T04:29:45.649Z,7.47
2022-07-31T04:32:16.959Z,8.40
2022-07-31T04:34:48.362Z,8.63
2022-07-31T04:37:19.715Z,9.37
2022-07-31T04:39:51.033Z,9.20
2022-07-31T04:42:22.443Z,9.17
2022-07-31T04:44:54.141Z,9.20
2022-07-31T04:47:25.495Z,10.13
2022-07-31T04:49:56.816Z,10.27
2022-07-31T04:52:28.398Z,9.27
2022-07-31T04:54:59.707Z,9.57
2022-07-31T04:57:31.150Z,8.93
2022-07-31T05:00:03.240Z,9.30
2022-07-31T05:02:34.700Z,8.40
2022-07-31T05:05:06.493Z,9.77
2022-07-31T05:07:38.729Z,9.37
2022-07-31T05:10:10.163Z,9.30
2022-07-31T05:12:41.458Z,8.80
2022-07-31T05:15:14.061Z,10.63
2022-07-31T05:17:45.349Z,9.23
2022-07-31T05:20:16.673Z,9.37
2022-07-31T05:22:47.957Z,9.00
2022-07-31T05:25:19.263Z,9.43
2022-07-31T05:27:50.583Z,9.30
2022-07-31T05:30:30.112Z,9.57
2022-07-31T05:33:02.052Z,9.98
2022-07-31T05:35:33.445Z,8.40
2022-07-31T05:38:04.859Z,8.80
2022-07-31T05:40:43.269Z,8.85
2022-07-31T05:43:14.624Z,8.15
2022-07-31T05:45:49.356Z,8.10
2022-07-31T05:48:21.258Z,7.30
2022-07-31T05:50:52.759Z,8.43
2022-07-31T05:53:24.174Z,7.72
2022-07-31T05:55:55.463Z,7.60
2022-07-31T05:58:26.754Z,6.93
2022-07-31T06:00:58.342Z,7.25
2022-07-31T06:03:30.017Z,7.30
2022-07-31T06:06:02.898Z,6.28
2022-07-31T06:08:34.204Z,6.30
2022-07-31T06:11:05.894Z,6.53
2022-07-31T06:13:37.286Z,6.00
2022-07-31T06:16:12.815Z,5.10
2022-07-31T06:18:44.108Z,5.55
2022-07-31T06:23:45.755Z,5.05
2022-07-31T06:26:17.155Z,4.32
2022-07-31T06:28:49.726Z,4.28
2022-07-31T06:31:22.164Z,4.15
2022-07-31T06:33:53.494Z,4.15
2022-07-31T06:36:24.779Z,4.28
2022-07-31T06:38:56.158Z,4.20
2022-07-31T06:41:44.312Z,4.25
2022-07-31T06:44:17.061Z,4.00
2022-07-31T06:46:49.606Z,3.75
2022-07-31T06:49:21.036Z,3.72
2022-07-31T06:51:52.705Z,3.95
2022-07-31T06:54:26.786Z,3.33
2022-07-31T06:56:58.315Z,3.30
2022-07-31T06:59:39.965Z,3.20
2022-07-31T07:02:12.108Z,3.55
2022-07-31T07:04:57.822Z,3.13
2022-07-31T07:07:36.512Z,3.22
2022-07-31T07:10:08.023Z,3.20
2022-07-31T07:12:39.329Z,3.78
2022-07-31T07:15:10.915Z,3.47
2022-07-31T07:17:42.210Z,3.20
2022-07-31T07:20:13.775Z,3.38
2022-07-31T07:22:45.084Z,3.13
2022-07-31T07:25:16.490Z,3.17
2022-07-31T07:27:47.844Z,3.22
2022-07-31T07:30:19.384Z,3.22
2022-07-31T07:32:50.731Z,2.80
2022-07-31T07:35:22.061Z,3.08
2022-07-31T07:37:54.050Z,2.95
2022-07-31T07:40:26.775Z,3.28
2022-07-31T07:43:02.823Z,2.30
2022-07-31T07:45:34.620Z,2.03
2022-07-31T07:48:07.542Z,3.00
2022-07-31T07:50:39.192Z,2.33
2022-07-31T07:53:12.854Z,2.22
2022-07-31T07:55:44.185Z,2.90
2022-07-31T07:58:16.054Z,3.10
2022-07-31T08:00:47.383Z,2.50
2022-07-31T08:03:49.879Z,2.78
2022-07-31T08:06:10.145Z,2.47
2022-07-31T08:08:41.546Z,2.30
2022-07-31T08:11:16.979Z,2.35
2022-07-31T08:13:50.873Z,2.50
2022-07-31T08:16:22.619Z,2.20
2022-07-31T08:18:54.759Z,2.13
2022-07-31T08:21:26.572Z,2.25
2022-07-31T08:23:57.891Z,2.25
2022-07-31T08:26:52.069Z,2.15
2022-07-31T08:29:26.541Z,1.80
2022-07-31T08:32:00.173Z,1.70
2022-07-31T08:34:32.246Z,2.00
2022-07-31T08:37:50.968Z,1.42
2022-07-31T08:39:57.772Z,1.50
2022-07-31T08:42:29.104Z,1.63
2022-07-31T08:45:00.418Z,1.70
2022-07-31T08:47:33.275Z,1.40
2022-07-31T08:50:05.594Z,1.58
2022-07-31T08:52:37.309Z,1.60
2022-07-31T08:55:09.246Z,1.83
2022-07-31T08:57:41.405Z,1.70
2022-07-31T09:00:17.380Z,1.42
2022-07-31T09:02:49.829Z,1.70
2022-07-31T09:05:21.712Z,1.60
2022-07-31T09:07:53.102Z,2.72
2022-07-31T09:10:26.722Z,1.75
2022-07-31T09:12:58.107Z,2.15
2022-07-31T09:15:31.384Z,1.90
2022-07-31T09:18:02.714Z,2.00
2022-07-31T09:20:34.047Z,1.88
2022-07-31T09:23:10.016Z,2.08
2022-07-31T09:25:51.706Z,1.77
2022-07-31T09:28:35.659Z,2.03
2022-07-31T09:31:09.318Z,1.80
2022-07-31T09:33:46.121Z,2.53
2022-07-31T09:36:22.955Z,1.92
2022-07-31T09:38:56.330Z,2.05
2022-07-31T09:41:55.961Z,2.05
2022-07-31T09:44:18.968Z,2.22
2022-07-31T09:46:56.746Z,2.10
2022-07-31T09:49:32.734Z,2.08
2022-07-31T09:52:04.360Z,2.30
2022-07-31T09:54:35.659Z,1.83
2022-07-31T09:57:12.333Z,2.17
2022-07-31T09:59:44.320Z,2.63
2022-07-31T10:02:19.918Z,2.30
2022-07-31T10:04:54.162Z,2.00
2022-07-31T10:07:32.463Z,1.98
2022-07-31T10:10:07.002Z,2.00
2022-07-31T10:12:42.371Z,1.58
2022-07-31T10:15:17.200Z,1.65
2022-07-31T10:17:51.532Z,1.90
2022-07-31T10:20:24.869Z,1.43
2022-07-31T10:23:01.513Z,1.60
2022-07-31T10:25:35.840Z,1.67
2022-07-31T10:28:07.697Z,1.50
2022-07-31T10:30:39.465Z,1.83
2022-07-31T10:33:34.111Z,1.17
2022-07-31T10:36:16.729Z,1.48
2022-07-31T10:38:58.580Z,1.38
2022-07-31T10:41:47.818Z,1.45
2022-07-31T10:44:38.651Z,1.20
2022-07-31T10:47:14.865Z,1.45
2022-07-31T10:49:49.025Z,1.40
2022-07-31T10:52:31.056Z,1.52
2022-07-31T10:55:14.677Z,1.27
2022-07-31T10:57:57.288Z,1.30
2022-07-31T11:00:30.061Z,1.67
2022-07-31T11:03:13.397Z,1.67
2022-07-31T11:06:01.587Z,1.30
2022-07-31T11:08:52.181Z,1.30
2022-07-31T11:11:37.693Z,1.60
2022-07-31T11:16:53.167Z,1.42
2022-07-31T11:19:24.839Z,1.17
2022-07-31T11:21:57.999Z,1.42
2022-07-31T11:24:29.350Z,1.77
2022-07-31T11:27:00.664Z,1.67
2022-07-31T11:29:58.991Z,2.22
2022-07-31T11:32:26.567Z,1.85
2022-07-31T11:34:58.184Z,1.63
2022-07-31T11:37:56.226Z,1.55
2022-07-31T11:40:26.520Z,1.48
2022-07-31T11:45:54.895Z,1.70
2022-07-31T11:48:27.931Z,1.85
2022-07-31T11:51:00.992Z,1.48
2022-07-31T11:53:40.836Z,1.90
2022-07-31T11:56:12.434Z,2.00
2022-07-31T11:58:48.733Z,2.08
2022-07-31T12:01:27.091Z,1.75
2022-07-31T12:04:07.532Z,1.60
2022-07-31T12:06:40.686Z,1.85
2022-07-31T12:10:02.589Z,1.90
2022-07-31T12:12:04.538Z,1.95
2022-07-31T12:14:38.481Z,1.80
2022-07-31T12:17:20.030Z,2.22
2022-07-31T12:19:56.105Z,2.08
2022-07-31T12:22:29.227Z,1.73
2022-07-31T12:25:03.152Z,1.90
2022-07-31T12:27:37.416Z,1.98
2022-07-31T12:30:16.633Z,2.15
2022-07-31T12:32:48.190Z,1.90
2022-07-31T12:35:19.536Z,1.90
2022-07-31T12:37:52.733Z,1.90
2022-07-31T12:40:26.106Z,2.40
2022-07-31T12:42:59.551Z,2.58
2022-07-31T12:45:36.246Z,2.13
2022-07-31T12:48:07.697Z,1.95
2022-07-31T12:50:39.058Z,2.00
2022-07-31T12:53:10.498Z,2.08
2022-07-31T12:55:41.805Z,3.05
2022-07-31T12:58:13.167Z,2.70
2022-07-31T13:00:44.466Z,2.10
2022-07-31T13:03:16.034Z,1.83
2022-07-31T13:05:51.879Z,2.10
2022-07-31T13:08:23.598Z,2.25
2022-07-31T13:10:54.898Z,2.20
2022-07-31T13:13:26.288Z,2.10
2022-07-31T13:15:57.593Z,1.65
2022-07-31T13:18:29.982Z,2.17
2022-07-31T13:21:02.108Z,1.63
2022-07-31T13:23:33.489Z,2.83
2022-07-31T13:26:05.008Z,1.73
2022-07-31T13:28:36.293Z,1.95
2022-07-31T13:31:07.684Z,1.73
2022-07-31T13:33:38.984Z,1.77
2022-07-31T13:36:10.328Z,2.13
2022-07-31T13:38:41.762Z,2.35
2022-07-31T13:41:27.817Z,2.05
2022-07-31T13:44:00.458Z,1.95
2022-07-31T13:46:32.151Z,2.20
2022-07-31T13:49:08.367Z,2.10
2022-07-31T13:51:39.989Z,1.98
2022-07-31T13:54:11.516Z,2.70
2022-07-31T13:56:43.751Z,2.20
2022-07-31T13:59:16.124Z,1.90
2022-07-31T14:02:03.063Z,1.90
2022-07-31T14:04:38.892Z,1.95
2022-07-31T14:07:12.819Z,2.10
2022-07-31T14:09:47.111Z,1.90
2022-07-31T14:12:26.237Z,1.92
2022-07-31T14:14:57.622Z,2.15
2022-07-31T14:17:28.907Z,2.72
2022-07-31T14:20:00.280Z,2.40
2022-07-31T14:22:32.546Z,2.33
2022-07-31T14:25:04.193Z,2.40
2022-07-31T14:27:35.917Z,2.60
2022-07-31T14:30:09.127Z,2.75
2022-07-31T14:32:40.750Z,2.45
2022-07-31T14:35:12.380Z,2.70
2022-07-31T14:37:43.733Z,2.75
2022-07-31T14:40:16.299Z,2.47
2022-07-31T14:42:47.622Z,3.38
2022-07-31T14:45:19.000Z,2.80
2022-07-31T14:47:50.329Z,3.05
2022-07-31T14:50:23.202Z,3.42
2022-07-31T14:52:56.150Z,3.28
2022-07-31T14:55:28.972Z,3.70
2022-07-31T14:58:00.277Z,3.42
2022-07-31T15:00:31.565Z,4.10
2022-07-31T15:03:02.942Z,3.33
2022-07-31T15:06:51.003Z,3.25
2022-07-31T15:08:26.588Z,3.95
2022-07-31T15:10:57.960Z,3.92
2022-07-31T15:13:29.250Z,3.60
2022-07-31T15:16:00.638Z,4.32
2022-07-31T15:18:31.966Z,4.00
2022-07-31T15:21:03.293Z,4.25
2022-07-31T15:23:35.990Z,3.80
2022-07-31T15:26:07.417Z,4.45
2022-07-31T15:28:38.766Z,4.05
2022-07-31T15:31:10.088Z,4.43
2022-07-31T15:33:41.546Z,4.35
2022-07-31T15:36:15.277Z,4.90
2022-07-31T15:38:46.742Z,4.53
2022-07-31T15:41:19.032Z,4.43
2022-07-31T15:43:50.549Z,5.15
2022-07-31T15:46:21.909Z,5.20
2022-07-31T15:48:53.241Z,5.38
2022-07-31T15:51:24.553Z,5.88
2022-07-31T15:53:56.076Z,6.82
2022-07-31T15:56:27.440Z,6.47
2022-07-31T15:59:00.128Z,6.18
2022-07-31T16:01:31.501Z,6.30
2022-07-31T16:04:03.072Z,6.07
2022-07-31T16:06:50.507Z,6.63
2022-07-31T16:09:23.935Z,6.85
2022-07-31T16:12:02.950Z,6.93
2022-07-31T16:14:36.595Z,7.55
2022-07-31T16:17:08.173Z,8.02
2022-07-31T16:19:40.263Z,7.10
2022-07-31T16:22:12.130Z,7.13
2022-07-31T16:24:43.554Z,7.32
2022-07-31T16:27:14.851Z,7.50
2022-07-31T16:29:59.487Z,8.02
2022-07-31T16:32:33.414Z,9.45
2022-07-31T16:35:06.242Z,9.20
2022-07-31T16:37:52.256Z,10.23
2022-07-31T16:40:30.683Z,10.73
2022-07-31T16:43:50.021Z,10.82
2022-07-31T16:45:56.805Z,12.13
2022-07-31T16:48:28.108Z,12.55
2022-07-31T16:51:00.585Z,11.75
2022-07-31T16:54:11.672Z,11.25
2022-07-31T16:56:23.397Z,12.57
2022-07-31T16:58:55.979Z,11.93
2022-07-31T17:01:58.550Z,12.20
2022-07-31T17:04:18.646Z,13.75
2022-07-31T17:06:50.025Z,12.13
2022-07-31T17:09:21.704Z,11.18
2022-07-31T17:11:55.794Z,11.75
2022-07-31T17:14:27.956Z,12.75
2022-07-31T17:16:59.361Z,12.45
2022-07-31T17:19:42.828Z,13.60
2022-07-31T17:22:18.742Z,13.48
2022-07-31T17:24:50.656Z,12.88
2022-07-31T17:27:22.545Z,12.23
2022-07-31T17:29:55.007Z,12.70
2022-07-31T17:32:26.843Z,13.57
2022-07-31T17:34:58.157Z,12.95
2022-07-31T17:37:30.491Z,13.43
2022-07-31T17:40:03.575Z,11.10
2022-07-31T17:42:34.897Z,10.68
2022-07-31T17:45:06.811Z,10.32
2022-07-31T17:47:38.451Z,9.68
2022-07-31T17:50:10.126Z,11.07
2022-07-31T17:52:41.411Z,10.80
2022-07-31T17:55:12.765Z,10.80
2022-07-31T17:57:44.046Z,11.32
2022-07-31T18:00:15.650Z,11.48
2022-07-31T18:02:46.985Z,12.85
2022-07-31T18:05:18.461Z,14.10
2022-07-31T18:07:51.756Z,13.80
2022-07-31T18:10:32.661Z,13.02
2022-07-31T18:13:15.078Z,12.60
2022-07-31T18:15:46.401Z,12.52
2022-07-31T18:18:17.819Z,13.23
2022-07-31T18:20:49.128Z,13.13
2022-07-31T18:23:22.887Z,13.50
2022-07-31T18:25:58.310Z,11.95
2022-07-31T18:28:31.497Z,12.00
2022-07-31T18:31:02.813Z,12.02
2022-07-31T18:33:34.400Z,7.70
2022-07-31T18:36:05.978Z,7.40
2022-07-31T18:38:38.069Z,7.00
2022-07-31T18:41:09.448Z,7.38
2022-07-31T18:43:40.774Z,6.88
2022-07-31T18:46:12.169Z,6.93
2022-07-31T18:48:43.470Z,6.43
2022-07-31T18:51:14.852Z,6.47
2022-07-31T18:53:46.186Z,7.07
2022-07-31T18:56:17.713Z,6.87
2022-07-31T18:58:49.005Z,7.30
2022-07-31T19:01:21.006Z,6.40
2022-07-31T19:03:52.941Z,7.05
2022-07-31T19:06:24.295Z,7.35
2022-07-31T19:08:56.606Z,6.80
2022-07-31T19:11:28.764Z,6.60
2022-07-31T19:14:00.101Z,6.53
2022-07-31T19:16:31.405Z,7.50
2022-07-31T19:19:03.881Z,6.93
2022-07-31T19:21:42.362Z,6.15
2022-07-31T19:24:14.528Z,6.88
2022-07-31T19:26:45.929Z,6.15
2022-07-31T19:29:18.673Z,5.80
2022-07-31T19:31:50.163Z,5.88
2022-07-31T19:34:21.603Z,6.23
2022-07-31T19:36:52.918Z,6.10
2022-07-31T19:39:24.252Z,6.00
2022-07-31T19:42:21.529Z,5.33
2022-07-31T19:44:46.960Z,5.80
2022-07-31T19:47:18.307Z,5.43
2022-07-31T19:49:51.274Z,5.55
2022-07-31T19:52:22.679Z,6.10
2022-07-31T19:54:54.013Z,5.63
2022-07-31T19:57:25.339Z,6.03
2022-07-31T19:59:56.655Z,6.20
2022-07-31T20:02:27.993Z,5.80
2022-07-31T20:05:00.168Z,5.47
2022-07-31T20:07:33.144Z,5.73
2022-07-31T20:10:09.728Z,5.87
2022-07-31T20:12:41.325Z,5.83
2022-07-31T20:15:12.810Z,6.67
2022-07-31T20:17:44.228Z,5.67
2022-07-31T20:20:16.321Z,6.10
2022-07-31T20:22:47.733Z,5.68
2022-07-31T20:25:20.266Z,5.95
2022-07-31T20:27:52.063Z,6.18
2022-07-31T20:30:25.002Z,6.18
2022-07-31T20:32:56.492Z,5.60
2022-07-31T20:35:33.093Z,5.82
2022-07-31T20:38:24.248Z,6.05
2022-07-31T20:40:56.166Z,5.82
2022-07-31T20:43:29.496Z,6.05
2022-07-31T20:46:00.827Z,5.90
2022-07-31T20:48:32.740Z,5.85
2022-07-31T20:51:05.518Z,6.25
2022-07-31T20:53:37.398Z,6.80
2022-07-31T20:56:09.049Z,5.53
2022-07-31T20:58:41.313Z,6.00
2022-07-31T21:01:13.117Z,6.40
2022-07-31T21:03:44.433Z,6.05
2022-07-31T21:06:16.442Z,6.33
2022-07-31T21:08:48.323Z,6.33
2022-07-31T21:11:20.364Z,6.72
2022-07-31T21:13:51.707Z,7.45
2022-07-31T21:16:24.481Z,6.72
2022-07-31T21:18:55.836Z,6.68
2022-07-31T21:21:27.241Z,6.85
2022-07-31T21:24:00.839Z,7.25
2022-07-31T21:26:33.653Z,7.55
2022-07-31T21:29:09.000Z,7.80
2022-07-31T21:31:49.179Z,8.18
2022-07-31T21:34:21.747Z,8.02
2022-07-31T21:36:53.584Z,7.75
2022-07-31T21:39:25.789Z,8.98
2022-07-31T21:41:57.357Z,8.67
2022-07-31T21:44:29.034Z,10.43
2022-07-31T21:47:03.130Z,7.97
2022-07-31T21:49:35.426Z,9.82
2022-07-31T21:52:07.676Z,9.82
2022-07-31T21:54:39.743Z,10.10
2022-07-31T21:57:11.037Z,10.35
2022-07-31T21:59:42.342Z,9.48
2022-07-31T22:02:14.243Z,9.80
2022-07-31T22:05:04.748Z,9.83
2022-07-31T22:07:46.426Z,9.60
2022-07-31T22:10:21.055Z,9.48
2022-07-31T22:12:52.864Z,9.37
2022-07-31T22:15:24.208Z,9.43
2022-07-31T22:17:55.546Z,10.10
2022-07-31T22:20:26.962Z,10.18
2022-07-31T22:22:58.531Z,10.52
2022-07-31T22:25:30.162Z,10.25
2022-07-31T22:28:03.117Z,11.48
2022-07-31T22:30:34.641Z,12.15
2022-07-31T22:33:06.128Z,12.43
2022-07-31T22:35:37.745Z,13.13
2022-07-31T22:38:11.001Z,13.40
2022-07-31T22:40:43.979Z,14.23
2022-07-31T22:44:10.199Z,14.35
2022-07-31T22:46:08.256Z,14.45
2022-07-31T22:48:40.696Z,15.05
2022-07-31T22:51:15.203Z,15.07
2022-07-31T22:53:49.023Z,14.70
2022-07-31T22:56:20.600Z,12.77
2022-07-31T22:58:51.952Z,14.77
2022-07-31T23:01:23.267Z,13.45
2022-07-31T23:03:54.759Z,13.43
2022-07-31T23:06:32.345Z,14.63
2022-07-31T23:09:04.085Z,14.38
2022-07-31T23:11:35.499Z,13.27
2022-07-31T23:14:06.826Z,12.35
2022-07-31T23:16:38.151Z,13.90
2022-07-31T23:19:09.763Z,14.90
2022-07-31T23:21:41.212Z,13.60
2022-07-31T23:24:12.636Z,13.57
2022-07-31T23:26:43.995Z,13.25
2022-07-31T23:29:15.362Z,12.20
2022-07-31T23:31:46.669Z,13.30
2022-07-31T23:34:18.047Z,12.13
2022-07-31T23:36:49.355Z,12.55
2022-07-31T23:39:22.879Z,12.88
2022-07-31T23:42:12.681Z,12.40
2022-07-31T23:44:46.316Z,11.77
2022-07-31T23:47:18.036Z,12.65
2022-07-31T23:49:49.346Z,11.98
2022-07-31T23:52:20.645Z,13.02
2022-07-31T23:54:51.937Z,12.60
2022-07-31T23:57:23.337Z,11.98
2022-07-31T23:59:54.654Z,12.48
